sensor_id;sensor_type;location;lat;lon;timestamp;P1;durP1;ratioP1;P2;durP2;ratioP2
12968;SDS011;6549;53.128;8.182;2023-02-19T00:00:03;10.98;;;5.30;;
12968;SDS011;6549;53.128;8.182;2023-02-19T00:03:04;9.10;;;5.65;;
12968;SDS011;6549;53.128;8.182;2023-02-19T00:06:05;8.82;;;5.65;;
12968;SDS011;6549;53.128;8.182;2023-02-19T00:12:08;11.48;;;6.57;;
12968;SDS011;6549;53.128;8.182;2023-02-19T00:15:09;11.48;;;6.95;;
12968;SDS011;6549;53.128;8.182;2023-02-19T00:18:12;8.75;;;5.50;;
12968;SDS011;6549;53.128;8.182;2023-02-19T00:21:13;10.57;;;5.47;;
12968;SDS011;6549;53.128;8.182;2023-02-19T00:24:15;8.32;;;4.53;;
12968;SDS011;6549;53.128;8.182;2023-02-19T00:27:16;7.90;;;4.65;;
12968;SDS011;6549;53.128;8.182;2023-02-19T00:30:16;7.78;;;4.20;;
12968;SDS011;6549;53.128;8.182;2023-02-19T00:33:16;8.30;;;4.13;;
12968;SDS011;6549;53.128;8.182;2023-02-19T00:36:17;6.72;;;3.72;;
12968;SDS011;6549;53.128;8.182;2023-02-19T00:39:17;6.22;;;3.35;;
12968;SDS011;6549;53.128;8.182;2023-02-19T00:42:18;5.93;;;3.03;;
12968;SDS011;6549;53.128;8.182;2023-02-19T00:45:18;6.55;;;3.10;;
12968;SDS011;6549;53.128;8.182;2023-02-19T00:48:18;6.43;;;3.47;;
12968;SDS011;6549;53.128;8.182;2023-02-19T00:51:19;6.03;;;3.30;;
12968;SDS011;6549;53.128;8.182;2023-02-19T00:54:23;6.97;;;3.72;;
12968;SDS011;6549;53.128;8.182;2023-02-19T00:57:23;7.68;;;4.05;;
12968;SDS011;6549;53.128;8.182;2023-02-19T01:00:23;7.85;;;3.88;;
12968;SDS011;6549;53.128;8.182;2023-02-19T01:03:24;8.50;;;4.15;;
12968;SDS011;6549;53.128;8.182;2023-02-19T01:06:24;7.38;;;3.55;;
12968;SDS011;6549;53.128;8.182;2023-02-19T01:09:25;6.80;;;3.42;;
12968;SDS011;6549;53.128;8.182;2023-02-19T01:12:25;7.13;;;3.75;;
12968;SDS011;6549;53.128;8.182;2023-02-19T01:15:27;5.72;;;3.15;;
12968;SDS011;6549;53.128;8.182;2023-02-19T01:18:27;6.93;;;2.97;;
12968;SDS011;6549;53.128;8.182;2023-02-19T01:21:28;5.80;;;2.70;;
12968;SDS011;6549;53.128;8.182;2023-02-19T01:24:29;5.68;;;3.03;;
12968;SDS011;6549;53.128;8.182;2023-02-19T01:27:30;6.22;;;3.00;;
12968;SDS011;6549;53.128;8.182;2023-02-19T01:30:32;6.07;;;2.95;;
12968;SDS011;6549;53.128;8.182;2023-02-19T01:33:33;6.55;;;3.08;;
12968;SDS011;6549;53.128;8.182;2023-02-19T01:36:34;6.90;;;3.45;;
12968;SDS011;6549;53.128;8.182;2023-02-19T01:39:35;6.90;;;3.30;;
12968;SDS011;6549;53.128;8.182;2023-02-19T01:42:36;8.25;;;3.72;;
12968;SDS011;6549;53.128;8.182;2023-02-19T01:45:37;7.18;;;3.42;;
12968;SDS011;6549;53.128;8.182;2023-02-19T01:48:41;5.90;;;2.97;;
12968;SDS011;6549;53.128;8.182;2023-02-19T01:51:45;6.32;;;2.88;;
12968;SDS011;6549;53.128;8.182;2023-02-19T01:54:48;5.40;;;2.67;;
12968;SDS011;6549;53.128;8.182;2023-02-19T01:57:50;5.80;;;2.83;;
12968;SDS011;6549;53.128;8.182;2023-02-19T02:00:54;6.22;;;3.00;;
12968;SDS011;6549;53.128;8.182;2023-02-19T02:03:54;7.95;;;3.78;;
12968;SDS011;6549;53.128;8.182;2023-02-19T02:06:55;8.85;;;4.45;;
12968;SDS011;6549;53.128;8.182;2023-02-19T02:09:57;10.40;;;5.00;;
12968;SDS011;6549;53.128;8.182;2023-02-19T02:13:16;10.88;;;5.65;;
12968;SDS011;6549;53.128;8.182;2023-02-19T02:16:35;12.40;;;6.53;;
12968;SDS011;6549;53.128;8.182;2023-02-19T02:26:44;16.20;;;7.75;;
12968;SDS011;6549;53.128;8.182;2023-02-19T02:34:11;16.13;;;7.80;;
12968;SDS011;6549;53.128;8.182;2023-02-19T02:37:05;14.70;;;6.93;;
12968;SDS011;6549;53.128;8.182;2023-02-19T02:40:08;14.57;;;7.13;;
12968;SDS011;6549;53.128;8.182;2023-02-19T02:46:12;15.75;;;7.10;;
12968;SDS011;6549;53.128;8.182;2023-02-19T02:49:19;15.77;;;7.45;;
12968;SDS011;6549;53.128;8.182;2023-02-19T02:52:22;16.10;;;7.72;;
12968;SDS011;6549;53.128;8.182;2023-02-19T02:55:42;12.95;;;6.63;;
12968;SDS011;6549;53.128;8.182;2023-02-19T02:58:46;11.57;;;6.05;;
12968;SDS011;6549;53.128;8.182;2023-02-19T03:01:49;12.48;;;5.53;;
12968;SDS011;6549;53.128;8.182;2023-02-19T03:05:17;8.43;;;4.72;;
12968;SDS011;6549;53.128;8.182;2023-02-19T03:08:40;9.07;;;4.70;;
12968;SDS011;6549;53.128;8.182;2023-02-19T03:11:48;8.43;;;4.25;;
12968;SDS011;6549;53.128;8.182;2023-02-19T03:15:09;8.68;;;4.45;;
12968;SDS011;6549;53.128;8.182;2023-02-19T03:18:31;8.77;;;4.60;;
12968;SDS011;6549;53.128;8.182;2023-02-19T03:21:59;8.05;;;3.83;;
12968;SDS011;6549;53.128;8.182;2023-02-19T03:25:10;8.40;;;4.05;;
12968;SDS011;6549;53.128;8.182;2023-02-19T03:28:49;8.30;;;3.90;;
12968;SDS011;6549;53.128;8.182;2023-02-19T03:32:11;7.47;;;3.45;;
12968;SDS011;6549;53.128;8.182;2023-02-19T03:35:21;6.57;;;3.40;;
12968;SDS011;6549;53.128;8.182;2023-02-19T03:38:29;7.53;;;2.95;;
12968;SDS011;6549;53.128;8.182;2023-02-19T03:48:18;9.88;;;4.03;;
12968;SDS011;6549;53.128;8.182;2023-02-19T03:51:42;8.70;;;4.13;;
12968;SDS011;6549;53.128;8.182;2023-02-19T03:55:10;8.55;;;3.75;;
12968;SDS011;6549;53.128;8.182;2023-02-19T03:58:16;6.30;;;3.40;;
12968;SDS011;6549;53.128;8.182;2023-02-19T04:04:58;7.25;;;2.50;;
12968;SDS011;6549;53.128;8.182;2023-02-19T04:08:10;8.23;;;2.42;;
12968;SDS011;6549;53.128;8.182;2023-02-19T04:11:14;7.25;;;2.47;;
12968;SDS011;6549;53.128;8.182;2023-02-19T04:14:20;8.75;;;2.97;;
12968;SDS011;6549;53.128;8.182;2023-02-19T04:17:25;5.80;;;2.80;;
12968;SDS011;6549;53.128;8.182;2023-02-19T04:20:33;7.63;;;2.60;;
12968;SDS011;6549;53.128;8.182;2023-02-19T04:23:39;6.78;;;2.35;;
12968;SDS011;6549;53.128;8.182;2023-02-19T04:26:42;3.20;;;1.48;;
12968;SDS011;6549;53.128;8.182;2023-02-19T04:29:43;3.80;;;1.65;;
12968;SDS011;6549;53.128;8.182;2023-02-19T04:32:44;8.27;;;2.30;;
12968;SDS011;6549;53.128;8.182;2023-02-19T04:35:44;4.75;;;2.00;;
12968;SDS011;6549;53.128;8.182;2023-02-19T04:38:44;6.45;;;1.90;;
12968;SDS011;6549;53.128;8.182;2023-02-19T04:41:45;4.70;;;2.22;;
12968;SDS011;6549;53.128;8.182;2023-02-19T04:44:45;4.60;;;1.83;;
12968;SDS011;6549;53.128;8.182;2023-02-19T04:47:45;4.20;;;1.90;;
12968;SDS011;6549;53.128;8.182;2023-02-19T04:50:46;6.40;;;2.35;;
12968;SDS011;6549;53.128;8.182;2023-02-19T04:53:46;6.25;;;2.63;;
12968;SDS011;6549;53.128;8.182;2023-02-19T04:56:46;6.32;;;2.65;;
12968;SDS011;6549;53.128;8.182;2023-02-19T04:59:47;7.68;;;2.38;;
12968;SDS011;6549;53.128;8.182;2023-02-19T05:02:47;5.78;;;2.72;;
12968;SDS011;6549;53.128;8.182;2023-02-19T05:05:47;8.27;;;2.75;;
12968;SDS011;6549;53.128;8.182;2023-02-19T05:08:47;6.50;;;2.58;;
12968;SDS011;6549;53.128;8.182;2023-02-19T05:11:48;6.68;;;2.70;;
12968;SDS011;6549;53.128;8.182;2023-02-19T05:14:48;7.65;;;2.90;;
12968;SDS011;6549;53.128;8.182;2023-02-19T05:17:48;5.57;;;2.83;;
12968;SDS011;6549;53.128;8.182;2023-02-19T05:20:49;5.90;;;2.95;;
12968;SDS011;6549;53.128;8.182;2023-02-19T05:23:50;7.18;;;3.10;;
12968;SDS011;6549;53.128;8.182;2023-02-19T05:26:50;6.90;;;2.90;;
12968;SDS011;6549;53.128;8.182;2023-02-19T05:29:50;9.05;;;3.67;;
12968;SDS011;6549;53.128;8.182;2023-02-19T05:32:51;8.38;;;3.53;;
12968;SDS011;6549;53.128;8.182;2023-02-19T05:35:52;9.60;;;4.15;;
12968;SDS011;6549;53.128;8.182;2023-02-19T05:38:54;8.77;;;3.67;;
12968;SDS011;6549;53.128;8.182;2023-02-19T05:41:55;12.23;;;4.50;;
12968;SDS011;6549;53.128;8.182;2023-02-19T05:44:56;11.02;;;5.47;;
12968;SDS011;6549;53.128;8.182;2023-02-19T05:47:56;11.23;;;5.10;;
12968;SDS011;6549;53.128;8.182;2023-02-19T05:51:01;10.57;;;5.05;;
12968;SDS011;6549;53.128;8.182;2023-02-19T05:54:05;9.93;;;4.82;;
12968;SDS011;6549;53.128;8.182;2023-02-19T05:57:05;9.23;;;4.60;;
12968;SDS011;6549;53.128;8.182;2023-02-19T06:00:06;11.50;;;5.63;;
12968;SDS011;6549;53.128;8.182;2023-02-19T06:03:08;10.18;;;5.20;;
12968;SDS011;6549;53.128;8.182;2023-02-19T06:06:09;10.07;;;5.03;;
12968;SDS011;6549;53.128;8.182;2023-02-19T06:09:12;9.07;;;4.70;;
12968;SDS011;6549;53.128;8.182;2023-02-19T06:12:13;13.38;;;6.60;;
12968;SDS011;6549;53.128;8.182;2023-02-19T06:15:13;10.32;;;5.18;;
12968;SDS011;6549;53.128;8.182;2023-02-19T06:18:13;11.02;;;5.95;;
12968;SDS011;6549;53.128;8.182;2023-02-19T06:21:14;11.45;;;5.85;;
12968;SDS011;6549;53.128;8.182;2023-02-19T06:24:16;14.43;;;6.15;;
12968;SDS011;6549;53.128;8.182;2023-02-19T06:27:16;14.80;;;6.63;;
12968;SDS011;6549;53.128;8.182;2023-02-19T06:30:16;11.43;;;5.80;;
12968;SDS011;6549;53.128;8.182;2023-02-19T06:33:17;14.48;;;5.93;;
12968;SDS011;6549;53.128;8.182;2023-02-19T06:36:17;11.35;;;5.68;;
12968;SDS011;6549;53.128;8.182;2023-02-19T06:39:19;12.87;;;5.77;;
12968;SDS011;6549;53.128;8.182;2023-02-19T06:42:19;13.05;;;5.80;;
12968;SDS011;6549;53.128;8.182;2023-02-19T06:45:19;9.70;;;5.13;;
12968;SDS011;6549;53.128;8.182;2023-02-19T06:48:20;11.25;;;5.15;;
12968;SDS011;6549;53.128;8.182;2023-02-19T06:51:20;12.00;;;5.88;;
12968;SDS011;6549;53.128;8.182;2023-02-19T06:54:26;12.10;;;6.13;;
12968;SDS011;6549;53.128;8.182;2023-02-19T06:57:26;14.50;;;8.27;;
12968;SDS011;6549;53.128;8.182;2023-02-19T07:00:26;12.02;;;6.78;;
12968;SDS011;6549;53.128;8.182;2023-02-19T07:03:27;12.75;;;6.80;;
12968;SDS011;6549;53.128;8.182;2023-02-19T07:06:27;13.07;;;6.07;;
12968;SDS011;6549;53.128;8.182;2023-02-19T07:09:28;9.25;;;4.97;;
12968;SDS011;6549;53.128;8.182;2023-02-19T07:12:29;10.95;;;5.28;;
12968;SDS011;6549;53.128;8.182;2023-02-19T07:15:29;10.32;;;4.97;;
12968;SDS011;6549;53.128;8.182;2023-02-19T07:18:29;10.70;;;5.07;;
12968;SDS011;6549;53.128;8.182;2023-02-19T07:21:30;9.88;;;5.05;;
12968;SDS011;6549;53.128;8.182;2023-02-19T07:24:30;9.57;;;4.40;;
12968;SDS011;6549;53.128;8.182;2023-02-19T07:27:31;7.60;;;4.28;;
12968;SDS011;6549;53.128;8.182;2023-02-19T07:30:31;10.50;;;4.55;;
12968;SDS011;6549;53.128;8.182;2023-02-19T07:33:31;9.10;;;4.53;;
12968;SDS011;6549;53.128;8.182;2023-02-19T07:36:32;9.25;;;4.05;;
12968;SDS011;6549;53.128;8.182;2023-02-19T07:39:33;8.27;;;3.95;;
12968;SDS011;6549;53.128;8.182;2023-02-19T07:42:33;9.00;;;3.90;;
12968;SDS011;6549;53.128;8.182;2023-02-19T07:45:34;7.85;;;4.10;;
12968;SDS011;6549;53.128;8.182;2023-02-19T07:48:34;7.50;;;3.40;;
12968;SDS011;6549;53.128;8.182;2023-02-19T07:51:35;9.40;;;4.15;;
12968;SDS011;6549;53.128;8.182;2023-02-19T07:54:38;11.40;;;4.35;;
12968;SDS011;6549;53.128;8.182;2023-02-19T07:57:39;8.30;;;3.95;;
12968;SDS011;6549;53.128;8.182;2023-02-19T08:00:39;6.60;;;3.40;;
12968;SDS011;6549;53.128;8.182;2023-02-19T08:03:39;6.38;;;3.00;;
12968;SDS011;6549;53.128;8.182;2023-02-19T08:06:40;6.50;;;3.20;;
12968;SDS011;6549;53.128;8.182;2023-02-19T08:09:41;8.07;;;2.90;;
12968;SDS011;6549;53.128;8.182;2023-02-19T08:12:41;7.65;;;3.20;;
12968;SDS011;6549;53.128;8.182;2023-02-19T08:19:00;10.00;;;3.27;;
12968;SDS011;6549;53.128;8.182;2023-02-19T08:22:01;7.82;;;2.47;;
12968;SDS011;6549;53.128;8.182;2023-02-19T08:25:01;9.88;;;3.33;;
12968;SDS011;6549;53.128;8.182;2023-02-19T08:28:02;6.53;;;3.10;;
12968;SDS011;6549;53.128;8.182;2023-02-19T08:31:04;6.43;;;2.72;;
12968;SDS011;6549;53.128;8.182;2023-02-19T08:34:05;7.90;;;3.28;;
12968;SDS011;6549;53.128;8.182;2023-02-19T08:37:06;9.38;;;3.03;;
12968;SDS011;6549;53.128;8.182;2023-02-19T08:40:06;6.28;;;2.78;;
12968;SDS011;6549;53.128;8.182;2023-02-19T08:43:08;7.25;;;2.92;;
12968;SDS011;6549;53.128;8.182;2023-02-19T08:46:12;7.43;;;3.15;;
12968;SDS011;6549;53.128;8.182;2023-02-19T08:49:13;7.38;;;3.05;;
12968;SDS011;6549;53.128;8.182;2023-02-19T08:52:13;6.07;;;2.50;;
12968;SDS011;6549;53.128;8.182;2023-02-19T08:55:14;7.38;;;2.83;;
12968;SDS011;6549;53.128;8.182;2023-02-19T08:58:14;6.70;;;2.25;;
12968;SDS011;6549;53.128;8.182;2023-02-19T09:01:15;5.28;;;2.53;;
12968;SDS011;6549;53.128;8.182;2023-02-19T09:04:17;6.78;;;2.30;;
12968;SDS011;6549;53.128;8.182;2023-02-19T09:07:17;5.18;;;2.10;;
12968;SDS011;6549;53.128;8.182;2023-02-19T09:10:18;6.03;;;2.10;;
12968;SDS011;6549;53.128;8.182;2023-02-19T09:13:18;6.90;;;2.22;;
12968;SDS011;6549;53.128;8.182;2023-02-19T09:16:19;7.63;;;2.70;;
12968;SDS011;6549;53.128;8.182;2023-02-19T09:19:19;8.55;;;2.10;;
12968;SDS011;6549;53.128;8.182;2023-02-19T09:22:19;8.48;;;1.80;;
12968;SDS011;6549;53.128;8.182;2023-02-19T09:25:20;4.28;;;1.88;;
12968;SDS011;6549;53.128;8.182;2023-02-19T09:28:20;5.57;;;1.80;;
12968;SDS011;6549;53.128;8.182;2023-02-19T09:31:21;8.52;;;1.70;;
12968;SDS011;6549;53.128;8.182;2023-02-19T09:34:21;7.53;;;2.50;;
12968;SDS011;6549;53.128;8.182;2023-02-19T09:37:25;4.20;;;1.52;;
12968;SDS011;6549;53.128;8.182;2023-02-19T09:40:26;6.85;;;1.70;;
12968;SDS011;6549;53.128;8.182;2023-02-19T09:43:28;6.50;;;2.10;;
12968;SDS011;6549;53.128;8.182;2023-02-19T09:46:30;5.57;;;1.83;;
12968;SDS011;6549;53.128;8.182;2023-02-19T09:49:35;5.97;;;1.80;;
12968;SDS011;6549;53.128;8.182;2023-02-19T09:55:42;5.95;;;1.80;;
12968;SDS011;6549;53.128;8.182;2023-02-19T09:58:47;5.85;;;1.58;;
12968;SDS011;6549;53.128;8.182;2023-02-19T10:01:54;4.80;;;1.35;;
12968;SDS011;6549;53.128;8.182;2023-02-19T10:05:05;7.37;;;1.73;;
12968;SDS011;6549;53.128;8.182;2023-02-19T10:08:13;4.85;;;1.60;;
12968;SDS011;6549;53.128;8.182;2023-02-19T10:11:18;4.28;;;1.25;;
12968;SDS011;6549;53.128;8.182;2023-02-19T10:14:22;6.43;;;1.35;;
12968;SDS011;6549;53.128;8.182;2023-02-19T10:17:32;7.15;;;2.10;;
12968;SDS011;6549;53.128;8.182;2023-02-19T10:20:34;2.22;;;0.82;;
12968;SDS011;6549;53.128;8.182;2023-02-19T10:23:34;3.35;;;1.33;;
12968;SDS011;6549;53.128;8.182;2023-02-19T10:26:35;8.77;;;1.42;;
12968;SDS011;6549;53.128;8.182;2023-02-19T10:29:35;4.70;;;1.40;;
12968;SDS011;6549;53.128;8.182;2023-02-19T10:32:36;5.78;;;1.48;;
12968;SDS011;6549;53.128;8.182;2023-02-19T10:35:50;4.82;;;1.20;;
12968;SDS011;6549;53.128;8.182;2023-02-19T10:38:53;4.47;;;1.60;;
12968;SDS011;6549;53.128;8.182;2023-02-19T10:41:53;5.07;;;1.30;;
12968;SDS011;6549;53.128;8.182;2023-02-19T10:44:57;4.47;;;1.10;;
12968;SDS011;6549;53.128;8.182;2023-02-19T10:48:01;6.05;;;0.88;;
12968;SDS011;6549;53.128;8.182;2023-02-19T10:51:03;5.22;;;1.20;;
12968;SDS011;6549;53.128;8.182;2023-02-19T10:54:24;10.80;;;1.17;;
12968;SDS011;6549;53.128;8.182;2023-02-19T10:57:28;9.63;;;1.63;;
12968;SDS011;6549;53.128;8.182;2023-02-19T11:00:31;4.47;;;1.25;;
12968;SDS011;6549;53.128;8.182;2023-02-19T11:03:32;5.53;;;1.20;;
12968;SDS011;6549;53.128;8.182;2023-02-19T11:06:32;7.53;;;1.20;;
12968;SDS011;6549;53.128;8.182;2023-02-19T11:09:35;6.13;;;1.00;;
12968;SDS011;6549;53.128;8.182;2023-02-19T11:12:37;4.70;;;0.90;;
12968;SDS011;6549;53.128;8.182;2023-02-19T11:15:38;2.42;;;0.90;;
12968;SDS011;6549;53.128;8.182;2023-02-19T11:18:39;6.15;;;1.27;;
12968;SDS011;6549;53.128;8.182;2023-02-19T11:21:41;4.60;;;1.10;;
12968;SDS011;6549;53.128;8.182;2023-02-19T11:24:42;2.22;;;0.80;;
12968;SDS011;6549;53.128;8.182;2023-02-19T11:28:16;6.30;;;1.45;;
12968;SDS011;6549;53.128;8.182;2023-02-19T11:31:24;5.95;;;1.13;;
12968;SDS011;6549;53.128;8.182;2023-02-19T11:34:28;3.72;;;0.82;;
12968;SDS011;6549;53.128;8.182;2023-02-19T11:37:29;7.03;;;0.80;;
12968;SDS011;6549;53.128;8.182;2023-02-19T11:40:39;4.13;;;0.90;;
12968;SDS011;6549;53.128;8.182;2023-02-19T11:44:07;5.70;;;0.88;;
12968;SDS011;6549;53.128;8.182;2023-02-19T11:47:30;6.13;;;1.33;;
12968;SDS011;6549;53.128;8.182;2023-02-19T11:50:50;5.32;;;1.08;;
12968;SDS011;6549;53.128;8.182;2023-02-19T11:58:36;6.10;;;1.25;;
12968;SDS011;6549;53.128;8.182;2023-02-19T12:05:03;3.47;;;1.17;;
12968;SDS011;6549;53.128;8.182;2023-02-19T12:08:21;4.90;;;1.20;;
12968;SDS011;6549;53.128;8.182;2023-02-19T12:14:42;5.35;;;1.20;;
12968;SDS011;6549;53.128;8.182;2023-02-19T12:31:28;2.50;;;0.82;;
12968;SDS011;6549;53.128;8.182;2023-02-19T12:38:08;5.82;;;0.82;;
12968;SDS011;6549;53.128;8.182;2023-02-19T12:41:20;2.72;;;0.90;;
12968;SDS011;6549;53.128;8.182;2023-02-19T12:44:25;2.95;;;0.90;;
12968;SDS011;6549;53.128;8.182;2023-02-19T12:47:41;3.50;;;0.77;;
12968;SDS011;6549;53.128;8.182;2023-02-19T12:50:46;3.92;;;0.90;;
12968;SDS011;6549;53.128;8.182;2023-02-19T13:03:39;3.53;;;0.93;;
12968;SDS011;6549;53.128;8.182;2023-02-19T13:06:50;3.13;;;1.10;;
12968;SDS011;6549;53.128;8.182;2023-02-19T13:09:57;4.75;;;0.90;;
12968;SDS011;6549;53.128;8.182;2023-02-19T13:13:16;3.90;;;1.00;;
12968;SDS011;6549;53.128;8.182;2023-02-19T13:16:22;6.00;;;1.08;;
12968;SDS011;6549;53.128;8.182;2023-02-19T13:19:24;3.75;;;0.98;;
12968;SDS011;6549;53.128;8.182;2023-02-19T13:22:36;2.90;;;0.90;;
12968;SDS011;6549;53.128;8.182;2023-02-19T13:26:14;3.65;;;0.98;;
12968;SDS011;6549;53.128;8.182;2023-02-19T13:36:23;3.42;;;1.00;;
12968;SDS011;6549;53.128;8.182;2023-02-19T13:39:26;3.63;;;1.13;;
12968;SDS011;6549;53.128;8.182;2023-02-19T13:42:28;2.00;;;0.90;;
12968;SDS011;6549;53.128;8.182;2023-02-19T13:45:42;4.47;;;1.10;;
12968;SDS011;6549;53.128;8.182;2023-02-19T13:48:44;3.78;;;1.00;;
12968;SDS011;6549;53.128;8.182;2023-02-19T13:51:52;1.98;;;0.90;;
12968;SDS011;6549;53.128;8.182;2023-02-19T14:02:20;4.70;;;0.90;;
12968;SDS011;6549;53.128;8.182;2023-02-19T14:09:01;6.25;;;1.20;;
12968;SDS011;6549;53.128;8.182;2023-02-19T14:18:40;4.38;;;1.05;;
12968;SDS011;6549;53.128;8.182;2023-02-19T14:21:44;2.28;;;1.00;;
12968;SDS011;6549;53.128;8.182;2023-02-19T14:24:45;4.95;;;0.80;;
12968;SDS011;6549;53.128;8.182;2023-02-19T14:27:45;5.10;;;1.10;;
12968;SDS011;6549;53.128;8.182;2023-02-19T14:30:56;4.03;;;1.00;;
12968;SDS011;6549;53.128;8.182;2023-02-19T14:34:00;1.83;;;0.90;;
12968;SDS011;6549;53.128;8.182;2023-02-19T14:37:03;4.47;;;1.20;;
12968;SDS011;6549;53.128;8.182;2023-02-19T14:40:09;2.40;;;0.88;;
12968;SDS011;6549;53.128;8.182;2023-02-19T14:43:20;2.70;;;1.00;;
12968;SDS011;6549;53.128;8.182;2023-02-19T14:46:30;3.25;;;0.77;;
12968;SDS011;6549;53.128;8.182;2023-02-19T14:49:41;7.40;;;1.10;;
12968;SDS011;6549;53.128;8.182;2023-02-19T14:52:48;6.68;;;1.08;;
12968;SDS011;6549;53.128;8.182;2023-02-19T14:55:53;5.93;;;1.40;;
12968;SDS011;6549;53.128;8.182;2023-02-19T15:02:29;8.32;;;1.50;;
12968;SDS011;6549;53.128;8.182;2023-02-19T15:05:32;4.18;;;1.13;;
12968;SDS011;6549;53.128;8.182;2023-02-19T15:08:39;3.55;;;1.30;;
12968;SDS011;6549;53.128;8.182;2023-02-19T15:11:42;3.90;;;1.10;;
12968;SDS011;6549;53.128;8.182;2023-02-19T15:14:43;4.35;;;0.90;;
12968;SDS011;6549;53.128;8.182;2023-02-19T15:17:45;2.88;;;1.00;;
12968;SDS011;6549;53.128;8.182;2023-02-19T15:20:45;2.45;;;0.98;;
12968;SDS011;6549;53.128;8.182;2023-02-19T15:23:46;5.53;;;1.25;;
12968;SDS011;6549;53.128;8.182;2023-02-19T15:26:48;4.45;;;1.40;;
12968;SDS011;6549;53.128;8.182;2023-02-19T15:29:51;4.72;;;1.00;;
12968;SDS011;6549;53.128;8.182;2023-02-19T15:32:56;3.90;;;0.82;;
12968;SDS011;6549;53.128;8.182;2023-02-19T15:35:59;4.18;;;1.13;;
12968;SDS011;6549;53.128;8.182;2023-02-19T15:39:03;3.25;;;1.02;;
12968;SDS011;6549;53.128;8.182;2023-02-19T15:42:04;4.07;;;0.93;;
12968;SDS011;6549;53.128;8.182;2023-02-19T15:48:16;4.20;;;1.00;;
12968;SDS011;6549;53.128;8.182;2023-02-19T15:51:22;4.97;;;1.42;;
12968;SDS011;6549;53.128;8.182;2023-02-19T15:54:37;1.75;;;1.05;;
12968;SDS011;6549;53.128;8.182;2023-02-19T15:57:56;2.97;;;0.93;;
12968;SDS011;6549;53.128;8.182;2023-02-19T16:01:03;3.40;;;1.30;;
12968;SDS011;6549;53.128;8.182;2023-02-19T16:04:11;2.92;;;1.08;;
12968;SDS011;6549;53.128;8.182;2023-02-19T16:07:21;4.07;;;0.90;;
12968;SDS011;6549;53.128;8.182;2023-02-19T16:10:32;6.30;;;1.30;;
12968;SDS011;6549;53.128;8.182;2023-02-19T16:13:33;3.92;;;1.42;;
12968;SDS011;6549;53.128;8.182;2023-02-19T16:16:34;3.88;;;1.17;;
12968;SDS011;6549;53.128;8.182;2023-02-19T16:19:43;3.03;;;1.25;;
12968;SDS011;6549;53.128;8.182;2023-02-19T16:22:47;3.17;;;1.10;;
12968;SDS011;6549;53.128;8.182;2023-02-19T16:25:56;3.05;;;1.05;;
12968;SDS011;6549;53.128;8.182;2023-02-19T16:28:58;4.18;;;1.10;;
12968;SDS011;6549;53.128;8.182;2023-02-19T16:31:59;4.13;;;1.25;;
12968;SDS011;6549;53.128;8.182;2023-02-19T16:35:02;5.80;;;1.90;;
12968;SDS011;6549;53.128;8.182;2023-02-19T16:38:10;3.47;;;1.75;;
12968;SDS011;6549;53.128;8.182;2023-02-19T16:41:12;5.28;;;1.88;;
12968;SDS011;6549;53.128;8.182;2023-02-19T16:47:28;4.47;;;1.90;;
12968;SDS011;6549;53.128;8.182;2023-02-19T16:50:30;4.65;;;1.77;;
12968;SDS011;6549;53.128;8.182;2023-02-19T16:53:30;3.20;;;1.70;;
12968;SDS011;6549;53.128;8.182;2023-02-19T16:56:32;3.58;;;1.52;;
12968;SDS011;6549;53.128;8.182;2023-02-19T16:59:32;4.07;;;1.73;;
12968;SDS011;6549;53.128;8.182;2023-02-19T17:02:33;4.45;;;1.70;;
12968;SDS011;6549;53.128;8.182;2023-02-19T17:05:33;5.53;;;1.77;;
12968;SDS011;6549;53.128;8.182;2023-02-19T17:08:36;6.70;;;2.28;;
12968;SDS011;6549;53.128;8.182;2023-02-19T17:11:38;7.80;;;2.90;;
12968;SDS011;6549;53.128;8.182;2023-02-19T17:14:38;7.72;;;3.55;;
12968;SDS011;6549;53.128;8.182;2023-02-19T17:17:39;8.43;;;3.80;;
12968;SDS011;6549;53.128;8.182;2023-02-19T17:20:40;11.32;;;5.20;;
12968;SDS011;6549;53.128;8.182;2023-02-19T17:23:42;11.45;;;5.65;;
12968;SDS011;6549;53.128;8.182;2023-02-19T17:26:42;9.90;;;5.10;;
12968;SDS011;6549;53.128;8.182;2023-02-19T17:29:43;9.35;;;5.00;;
12968;SDS011;6549;53.128;8.182;2023-02-19T17:32:43;11.18;;;5.53;;
12968;SDS011;6549;53.128;8.182;2023-02-19T17:35:43;11.40;;;6.30;;
12968;SDS011;6549;53.128;8.182;2023-02-19T17:38:44;8.95;;;4.65;;
12968;SDS011;6549;53.128;8.182;2023-02-19T17:41:44;9.52;;;4.18;;
12968;SDS011;6549;53.128;8.182;2023-02-19T17:44:45;7.63;;;3.10;;
12968;SDS011;6549;53.128;8.182;2023-02-19T17:47:46;8.50;;;2.80;;
12968;SDS011;6549;53.128;8.182;2023-02-19T17:50:46;7.43;;;4.00;;
12968;SDS011;6549;53.128;8.182;2023-02-19T17:53:49;11.63;;;5.40;;
12968;SDS011;6549;53.128;8.182;2023-02-19T17:56:49;12.98;;;6.47;;
12968;SDS011;6549;53.128;8.182;2023-02-19T17:59:50;13.27;;;5.70;;
12968;SDS011;6549;53.128;8.182;2023-02-19T18:02:50;12.23;;;4.90;;
12968;SDS011;6549;53.128;8.182;2023-02-19T18:05:50;11.32;;;5.00;;
12968;SDS011;6549;53.128;8.182;2023-02-19T18:08:51;10.27;;;5.20;;
12968;SDS011;6549;53.128;8.182;2023-02-19T18:11:52;9.15;;;4.45;;
12968;SDS011;6549;53.128;8.182;2023-02-19T18:14:52;11.20;;;4.70;;
12968;SDS011;6549;53.128;8.182;2023-02-19T18:17:55;10.65;;;4.15;;
12968;SDS011;6549;53.128;8.182;2023-02-19T18:20:57;8.35;;;3.88;;
12968;SDS011;6549;53.128;8.182;2023-02-19T18:23:57;10.40;;;3.95;;
12968;SDS011;6549;53.128;8.182;2023-02-19T18:26:57;8.98;;;4.47;;
12968;SDS011;6549;53.128;8.182;2023-02-19T18:29:57;10.30;;;4.43;;
12968;SDS011;6549;53.128;8.182;2023-02-19T18:32:58;6.07;;;2.85;;
12968;SDS011;6549;53.128;8.182;2023-02-19T18:35:58;6.95;;;2.78;;
12968;SDS011;6549;53.128;8.182;2023-02-19T18:38:58;6.25;;;3.03;;
12968;SDS011;6549;53.128;8.182;2023-02-19T18:41:59;5.93;;;2.63;;
12968;SDS011;6549;53.128;8.182;2023-02-19T18:45:00;8.30;;;3.58;;
12968;SDS011;6549;53.128;8.182;2023-02-19T18:48:00;12.13;;;4.72;;
12968;SDS011;6549;53.128;8.182;2023-02-19T18:51:00;7.90;;;3.65;;
12968;SDS011;6549;53.128;8.182;2023-02-19T18:54:01;10.32;;;2.95;;
12968;SDS011;6549;53.128;8.182;2023-02-19T18:57:03;7.28;;;2.67;;
12968;SDS011;6549;53.128;8.182;2023-02-19T19:00:04;5.45;;;2.58;;
12968;SDS011;6549;53.128;8.182;2023-02-19T19:03:05;9.43;;;3.87;;
12968;SDS011;6549;53.128;8.182;2023-02-19T19:06:05;8.80;;;3.20;;
12968;SDS011;6549;53.128;8.182;2023-02-19T19:09:06;7.40;;;3.05;;
12968;SDS011;6549;53.128;8.182;2023-02-19T19:12:07;7.13;;;3.40;;
12968;SDS011;6549;53.128;8.182;2023-02-19T19:15:07;10.32;;;2.83;;
12968;SDS011;6549;53.128;8.182;2023-02-19T19:18:08;8.27;;;2.67;;
12968;SDS011;6549;53.128;8.182;2023-02-19T19:21:08;5.95;;;2.20;;
12968;SDS011;6549;53.128;8.182;2023-02-19T19:24:09;6.65;;;2.53;;
12968;SDS011;6549;53.128;8.182;2023-02-19T19:27:09;8.30;;;2.58;;
12968;SDS011;6549;53.128;8.182;2023-02-19T19:30:09;5.95;;;2.58;;
12968;SDS011;6549;53.128;8.182;2023-02-19T19:33:10;4.70;;;2.50;;
12968;SDS011;6549;53.128;8.182;2023-02-19T19:36:10;6.00;;;2.38;;
12968;SDS011;6549;53.128;8.182;2023-02-19T19:39:11;8.23;;;2.50;;
12968;SDS011;6549;53.128;8.182;2023-02-19T19:42:12;5.07;;;2.00;;
12968;SDS011;6549;53.128;8.182;2023-02-19T19:45:12;8.73;;;2.30;;
12968;SDS011;6549;53.128;8.182;2023-02-19T19:48:13;4.25;;;2.13;;
12968;SDS011;6549;53.128;8.182;2023-02-19T19:51:13;7.15;;;2.40;;
12968;SDS011;6549;53.128;8.182;2023-02-19T19:54:14;7.22;;;2.67;;
12968;SDS011;6549;53.128;8.182;2023-02-19T19:57:14;4.20;;;2.30;;
12968;SDS011;6549;53.128;8.182;2023-02-19T20:00:16;6.00;;;2.20;;
12968;SDS011;6549;53.128;8.182;2023-02-19T20:03:17;4.80;;;1.60;;
12968;SDS011;6549;53.128;8.182;2023-02-19T20:06:26;7.97;;;2.25;;
12968;SDS011;6549;53.128;8.182;2023-02-19T20:09:28;5.10;;;2.20;;
12968;SDS011;6549;53.128;8.182;2023-02-19T20:12:28;3.03;;;1.85;;
12968;SDS011;6549;53.128;8.182;2023-02-19T20:15:29;6.18;;;2.63;;
12968;SDS011;6549;53.128;8.182;2023-02-19T20:18:29;3.58;;;1.90;;
12968;SDS011;6549;53.128;8.182;2023-02-19T20:21:29;7.65;;;2.50;;
12968;SDS011;6549;53.128;8.182;2023-02-19T20:24:30;6.60;;;2.25;;